createdAt,value
2019-02-25T00:01:24.658Z,23.30
2019-02-25T00:03:55.061Z,23.13
2019-02-25T00:06:29.686Z,23.33
2019-02-25T00:08:59.862Z,21.27
2019-02-25T00:11:30.145Z,22.30
2019-02-25T00:14:00.256Z,21.97
2019-02-25T00:16:31.455Z,24.43
2019-02-25T00:19:01.741Z,22.33
2019-02-25T00:21:31.874Z,22.37
2019-02-25T00:24:02.102Z,21.73
2019-02-25T00:26:32.251Z,21.57
2019-02-25T00:29:02.400Z,22.67
2019-02-25T00:31:32.642Z,25.67
2019-02-25T00:34:02.797Z,26.03
2019-02-25T00:36:52.140Z,24.33
2019-02-25T00:39:22.358Z,24.53
2019-02-25T00:41:52.469Z,23.20
2019-02-25T00:44:22.599Z,23.00
2019-02-25T00:46:52.665Z,23.13
2019-02-25T00:49:22.777Z,22.13
2019-02-25T00:51:53.782Z,21.47
2019-02-25T00:54:24.061Z,22.27
2019-02-25T00:56:55.903Z,22.50
2019-02-25T00:59:26.031Z,21.77
2019-02-25T01:01:58.149Z,22.63
2019-02-25T01:04:29.317Z,21.60
2019-02-25T01:06:59.438Z,21.80
2019-02-25T01:09:29.532Z,20.57
2019-02-25T01:12:00.211Z,19.43
2019-02-25T01:14:33.379Z,21.93
2019-02-25T01:17:03.613Z,20.40
2019-02-25T01:19:34.827Z,20.93
2019-02-25T01:22:04.934Z,22.43
2019-02-25T01:24:34.956Z,20.27
2019-02-25T01:27:05.133Z,20.33
2019-02-25T01:29:35.410Z,19.53
2019-02-25T01:32:05.646Z,21.77
2019-02-25T01:34:47.453Z,19.77
2019-02-25T01:37:17.445Z,19.60
2019-02-25T01:39:47.539Z,18.70
2019-02-25T01:42:17.771Z,19.57
2019-02-25T01:44:47.871Z,19.07
2019-02-25T01:47:18.039Z,20.33
2019-02-25T01:49:48.194Z,18.67
2019-02-25T01:52:18.395Z,19.70
2019-02-25T01:54:48.561Z,19.43
2019-02-25T01:57:18.775Z,19.53
2019-02-25T01:59:48.820Z,19.27
2019-02-25T02:02:18.940Z,20.40
2019-02-25T02:04:49.860Z,20.13
2019-02-25T02:07:19.971Z,18.83
2019-02-25T02:09:50.156Z,20.70
2019-02-25T02:12:20.263Z,20.27
2019-02-25T02:14:50.549Z,19.07
2019-02-25T02:17:20.707Z,18.17
2019-02-25T02:19:50.902Z,19.73
2019-02-25T02:22:20.952Z,18.10
2019-02-25T02:25:10.686Z,18.73
2019-02-25T02:27:40.905Z,19.67
2019-02-25T02:30:15.359Z,19.93
2019-02-25T02:32:45.648Z,20.17
2019-02-25T02:35:15.884Z,18.97
2019-02-25T02:37:46.163Z,20.07
2019-02-25T02:40:16.447Z,19.70
2019-02-25T02:42:49.466Z,18.93
2019-02-25T02:45:41.823Z,19.80
2019-02-25T02:48:25.172Z,18.83
2019-02-25T02:50:55.229Z,19.63
2019-02-25T02:53:25.357Z,20.97
2019-02-25T02:55:55.490Z,20.90
2019-02-25T02:58:25.598Z,20.57
2019-02-25T03:00:55.715Z,19.97
2019-02-25T03:03:25.882Z,20.60
2019-02-25T03:05:55.981Z,21.70
2019-02-25T03:08:26.089Z,21.20
2019-02-25T03:10:56.235Z,20.53
2019-02-25T03:13:26.349Z,20.20
2019-02-25T03:15:56.444Z,19.43
2019-02-25T03:18:26.454Z,19.60
2019-02-25T03:20:56.563Z,20.43
2019-02-25T03:23:26.638Z,19.17
2019-02-25T03:25:56.713Z,19.33
2019-02-25T03:28:26.795Z,20.37
2019-02-25T03:30:56.860Z,20.07
2019-02-25T03:33:27.869Z,19.03
2019-02-25T03:35:57.869Z,19.83
2019-02-25T03:38:27.994Z,19.07
2019-02-25T03:40:58.035Z,18.40
2019-02-25T03:43:28.156Z,18.23
2019-02-25T03:45:58.426Z,18.30
2019-02-25T03:48:28.530Z,17.90
2019-02-25T03:50:58.707Z,17.57
2019-02-25T03:53:28.854Z,17.87
2019-02-25T03:55:59.044Z,17.20
2019-02-25T03:58:30.307Z,20.17
2019-02-25T04:01:00.536Z,17.97
2019-02-25T04:03:30.762Z,19.07
2019-02-25T04:06:00.823Z,18.43
2019-02-25T04:08:42.539Z,17.73
2019-02-25T04:11:12.804Z,18.23
2019-02-25T04:13:42.853Z,18.03
2019-02-25T04:16:14.255Z,17.87
2019-02-25T04:18:44.415Z,18.13
2019-02-25T04:21:14.617Z,18.93
2019-02-25T04:23:44.757Z,18.37
2019-02-25T04:26:14.894Z,17.93
2019-02-25T04:28:44.918Z,17.67
2019-02-25T04:31:15.069Z,18.20
2019-02-25T04:33:45.099Z,16.77
2019-02-25T04:36:15.271Z,17.60
2019-02-25T04:38:45.415Z,18.00
2019-02-25T04:41:15.488Z,18.70
2019-02-25T04:43:46.459Z,17.93
2019-02-25T04:46:16.640Z,22.27
2019-02-25T04:48:46.869Z,22.83
2019-02-25T04:51:17.019Z,21.37
2019-02-25T04:53:47.241Z,20.63
2019-02-25T04:56:17.272Z,20.83
2019-02-25T04:58:47.390Z,21.37
2019-02-25T05:01:17.568Z,20.23
2019-02-25T05:03:47.659Z,21.30
2019-02-25T05:06:17.730Z,20.87
2019-02-25T05:08:47.893Z,22.30
2019-02-25T05:11:18.036Z,19.73
2019-02-25T05:13:48.265Z,22.47
2019-02-25T05:16:18.398Z,21.00
2019-02-25T05:18:48.632Z,22.30
2019-02-25T05:21:18.818Z,24.13
2019-02-25T05:23:49.002Z,27.43
2019-02-25T05:26:19.285Z,26.00
2019-02-25T05:28:49.486Z,25.67
2019-02-25T05:31:19.750Z,26.07
2019-02-25T05:33:49.908Z,22.17
2019-02-25T05:36:39.107Z,23.20
2019-02-25T05:39:09.420Z,22.67
2019-02-25T05:41:39.598Z,20.80
2019-02-25T05:44:09.798Z,21.43
2019-02-25T05:46:39.904Z,22.10
2019-02-25T05:49:10.084Z,21.53
2019-02-25T05:51:40.202Z,21.40
2019-02-25T05:54:10.242Z,24.47
2019-02-25T05:56:40.389Z,25.43
2019-02-25T05:59:10.486Z,24.23
2019-02-25T06:01:40.822Z,24.93
2019-02-25T06:04:10.930Z,25.97
2019-02-25T06:06:41.220Z,22.53
2019-02-25T06:09:11.438Z,21.43
2019-02-25T06:11:41.655Z,25.07
2019-02-25T06:14:11.680Z,22.10
2019-02-25T06:16:42.007Z,22.53
2019-02-25T06:19:12.117Z,19.33
2019-02-25T06:21:42.381Z,20.43
2019-02-25T06:24:12.434Z,20.13
2019-02-25T06:26:42.583Z,20.50
2019-02-25T06:29:12.699Z,19.87
2019-02-25T06:31:43.032Z,21.20
2019-02-25T06:34:13.041Z,19.47
2019-02-25T06:36:43.201Z,18.60
2019-02-25T06:39:13.611Z,19.60
2019-02-25T06:41:43.855Z,19.13
2019-02-25T06:44:14.092Z,18.10
2019-02-25T06:46:44.356Z,18.30
2019-02-25T06:49:14.476Z,17.53
2019-02-25T06:51:44.666Z,20.10
2019-02-25T06:54:14.925Z,19.47
2019-02-25T06:56:45.035Z,19.10
2019-02-25T06:59:15.173Z,19.10
2019-02-25T07:01:45.245Z,19.23
2019-02-25T07:04:24.040Z,18.07
2019-02-25T07:07:00.192Z,19.67
2019-02-25T07:09:49.478Z,18.67
2019-02-25T07:12:38.880Z,19.73
2019-02-25T07:15:14.114Z,18.90
2019-02-25T07:17:58.798Z,18.60
2019-02-25T07:20:48.103Z,19.20
2019-02-25T07:23:29.049Z,19.53
2019-02-25T07:26:08.300Z,20.80
2019-02-25T07:28:57.671Z,20.83
2019-02-25T07:31:46.992Z,21.00
2019-02-25T07:34:36.298Z,20.43
2019-02-25T07:37:26.168Z,20.63
2019-02-25T07:40:11.210Z,21.10
2019-02-25T07:43:00.478Z,20.43
2019-02-25T07:45:42.816Z,18.83
2019-02-25T07:48:19.022Z,20.37
2019-02-25T07:50:56.245Z,21.60
2019-02-25T07:53:45.416Z,22.37
2019-02-25T07:56:34.626Z,22.07
2019-02-25T07:59:11.050Z,21.13
2019-02-25T08:01:59.402Z,22.63
2019-02-25T08:04:42.007Z,23.73
2019-02-25T08:07:23.275Z,21.97
2019-02-25T08:10:01.812Z,21.30
2019-02-25T08:12:40.866Z,21.93
2019-02-25T08:15:19.612Z,22.77
2019-02-25T08:18:08.992Z,22.37
2019-02-25T08:20:47.806Z,23.20
2019-02-25T08:23:27.713Z,23.30
2019-02-25T08:26:29.770Z,21.50
2019-02-25T08:29:19.014Z,21.37
2019-02-25T08:32:08.402Z,22.13
2019-02-25T08:34:57.725Z,22.77
2019-02-25T08:38:09.676Z,24.60
2019-02-25T08:41:09.960Z,23.45
2019-02-25T08:44:07.490Z,23.70
2019-02-25T08:47:15.739Z,22.70
2019-02-25T08:49:49.105Z,22.17
2019-02-25T08:52:19.355Z,24.27
2019-02-25T08:54:49.481Z,22.03
2019-02-25T08:57:19.714Z,22.17
2019-02-25T08:59:49.987Z,24.32
2019-02-25T09:02:20.244Z,22.07
2019-02-25T09:04:50.403Z,25.17
2019-02-25T09:07:21.718Z,23.42
2019-02-25T09:09:51.986Z,23.38
2019-02-25T09:12:22.138Z,22.73
2019-02-25T09:14:52.241Z,23.22
2019-02-25T09:17:22.309Z,23.00
2019-02-25T09:19:52.337Z,20.63
2019-02-25T09:22:22.540Z,22.50
2019-02-25T09:24:52.774Z,22.27
2019-02-25T09:27:24.109Z,22.17
2019-02-25T09:29:54.347Z,20.30
2019-02-25T09:32:24.641Z,22.87
2019-02-25T09:34:55.894Z,23.18
2019-02-25T09:37:26.284Z,23.30
2019-02-25T09:39:56.484Z,20.32
2019-02-25T09:42:26.737Z,22.25
2019-02-25T09:44:58.328Z,21.48
2019-02-25T09:47:28.611Z,22.17
2019-02-25T09:49:58.830Z,22.73
2019-02-25T09:52:29.163Z,22.75
2019-02-25T09:54:59.316Z,21.05
2019-02-25T09:57:29.504Z,21.52
2019-02-25T10:00:00.737Z,21.40
2019-02-25T10:02:34.343Z,20.12
2019-02-25T10:05:05.149Z,22.55
2019-02-25T10:07:35.320Z,21.25
2019-02-25T10:10:05.938Z,19.55
2019-02-25T10:12:36.875Z,19.52
2019-02-25T10:15:08.492Z,20.72
2019-02-25T10:17:38.762Z,19.52
2019-02-25T10:20:09.450Z,21.57
2019-02-25T10:22:39.917Z,19.55
2019-02-25T10:25:10.390Z,20.15
2019-02-25T10:27:40.532Z,20.55
2019-02-25T10:30:11.755Z,21.07
2019-02-25T10:32:42.070Z,20.57
2019-02-25T10:35:12.696Z,19.85
2019-02-25T10:37:43.805Z,20.48
2019-02-25T10:40:16.002Z,19.52
2019-02-25T10:42:46.895Z,19.95
2019-02-25T10:45:17.528Z,18.67
2019-02-25T10:47:49.466Z,19.42
2019-02-25T10:50:19.915Z,20.77
2019-02-25T10:52:50.097Z,19.75
2019-02-25T10:55:29.633Z,18.02
2019-02-25T10:58:02.047Z,20.02
2019-02-25T11:00:32.068Z,19.70
2019-02-25T11:03:03.623Z,21.20
2019-02-25T11:05:33.970Z,21.05
2019-02-25T11:08:07.790Z,21.75
2019-02-25T11:10:48.636Z,21.73
2019-02-25T11:13:19.134Z,19.67
2019-02-25T11:15:49.433Z,19.67
2019-02-25T11:18:21.831Z,21.42
2019-02-25T11:20:51.598Z,23.98
2019-02-25T11:23:21.866Z,21.87
2019-02-25T11:25:53.550Z,21.33
2019-02-25T11:28:26.058Z,20.75
2019-02-25T11:30:56.072Z,20.62
2019-02-25T11:33:27.899Z,19.98
2019-02-25T11:35:58.271Z,21.65
2019-02-25T11:38:31.290Z,20.90
2019-02-25T11:41:04.779Z,22.52
2019-02-25T11:43:35.948Z,24.67
2019-02-25T11:46:06.249Z,23.05
2019-02-25T11:48:36.433Z,23.57
2019-02-25T11:51:06.649Z,22.80
2019-02-25T11:53:36.936Z,21.90
2019-02-25T11:56:07.115Z,21.87
2019-02-25T11:58:37.281Z,21.95
2019-02-25T12:01:07.603Z,22.93
2019-02-25T12:03:37.936Z,22.55
2019-02-25T12:06:08.231Z,22.80
2019-02-25T12:08:38.376Z,24.23
2019-02-25T12:11:08.767Z,23.90
2019-02-25T12:13:39.056Z,24.32
2019-02-25T12:16:09.391Z,25.48
2019-02-25T12:18:39.537Z,24.95
2019-02-25T12:21:09.716Z,25.37
2019-02-25T12:23:40.054Z,24.65
2019-02-25T12:26:10.386Z,24.52
2019-02-25T12:28:40.459Z,24.12
2019-02-25T12:31:10.814Z,25.23
2019-02-25T12:33:40.956Z,25.57
2019-02-25T12:36:11.241Z,26.45
2019-02-25T12:38:41.607Z,26.07
2019-02-25T12:41:11.913Z,25.77
2019-02-25T12:43:42.074Z,26.97
2019-02-25T12:46:12.271Z,26.62
2019-02-25T12:48:42.526Z,26.55
2019-02-25T12:51:13.614Z,26.02
2019-02-25T12:53:45.474Z,26.60
2019-02-25T12:56:15.658Z,24.43
2019-02-25T12:58:45.616Z,23.45
2019-02-25T13:01:15.788Z,26.30
2019-02-25T13:03:45.943Z,25.02
2019-02-25T13:06:16.148Z,24.80
2019-02-25T13:08:46.333Z,23.15
2019-02-25T13:11:16.405Z,24.32
2019-02-25T13:13:47.570Z,27.67
2019-02-25T13:16:17.851Z,29.80
2019-02-25T13:18:48.129Z,29.57
2019-02-25T13:21:18.397Z,29.23
2019-02-25T13:23:48.522Z,29.50
2019-02-25T13:26:18.673Z,28.87
2019-02-25T13:28:48.946Z,27.98
2019-02-25T13:31:19.301Z,27.82
2019-02-25T13:33:49.557Z,26.90
2019-02-25T13:36:19.934Z,28.17
2019-02-25T13:38:50.195Z,26.45
2019-02-25T13:41:20.433Z,28.77
2019-02-25T13:43:50.693Z,29.85
2019-02-25T13:46:21.224Z,29.50
2019-02-25T13:48:51.474Z,29.65
2019-02-25T13:51:21.867Z,30.68
2019-02-25T13:53:52.071Z,32.63
2019-02-25T13:56:22.197Z,31.65
2019-02-25T13:58:52.399Z,33.05
2019-02-25T14:01:22.760Z,31.87
2019-02-25T14:03:53.071Z,30.17
2019-02-25T14:06:23.373Z,30.92
2019-02-25T14:08:53.559Z,30.62
2019-02-25T14:11:23.734Z,30.65
2019-02-25T14:13:54.103Z,29.23
2019-02-25T14:16:24.461Z,29.37
2019-02-25T14:18:56.881Z,30.20
2019-02-25T14:21:27.264Z,29.23
2019-02-25T14:23:59.620Z,27.93
2019-02-25T14:26:29.443Z,30.75
2019-02-25T14:28:59.716Z,29.98
2019-02-25T14:31:30.111Z,30.70
2019-02-25T14:34:00.463Z,29.75
2019-02-25T14:36:31.102Z,29.55
2019-02-25T14:39:04.326Z,28.42
2019-02-25T14:41:36.874Z,32.95
2019-02-25T14:44:07.379Z,30.92
2019-02-25T14:46:37.874Z,30.50
2019-02-25T14:49:08.309Z,27.73
2019-02-25T14:51:38.649Z,31.30
2019-02-25T14:54:09.011Z,33.53
2019-02-25T14:56:39.286Z,32.03
2019-02-25T14:59:13.271Z,28.83
2019-02-25T15:01:42.569Z,29.27
2019-02-25T15:04:14.053Z,29.77
2019-02-25T15:06:44.491Z,31.87
2019-02-25T15:09:16.268Z,31.93
2019-02-25T15:11:46.542Z,31.52
2019-02-25T15:14:17.189Z,35.68
2019-02-25T15:16:48.648Z,33.90
2019-02-25T15:19:18.969Z,35.38
2019-02-25T15:21:50.090Z,34.83
2019-02-25T15:24:22.123Z,37.90
2019-02-25T15:26:57.332Z,40.58
2019-02-25T15:29:25.436Z,39.67
2019-02-25T15:31:57.041Z,43.40
2019-02-25T15:34:27.648Z,40.75
2019-02-25T15:36:58.506Z,38.92
2019-02-25T15:39:29.888Z,40.80
2019-02-25T15:42:00.208Z,32.00
2019-02-25T15:44:30.595Z,38.28
2019-02-25T15:47:02.512Z,35.10
2019-02-25T15:49:33.446Z,36.23
2019-02-25T15:52:03.717Z,35.30
2019-02-25T15:54:35.018Z,38.50
2019-02-25T15:57:06.156Z,40.03
2019-02-25T15:59:36.411Z,38.90
2019-02-25T16:02:07.523Z,43.30
2019-02-25T16:04:39.938Z,40.88
2019-02-25T16:07:11.439Z,41.18
2019-02-25T16:09:41.722Z,39.47
2019-02-25T16:12:14.928Z,40.83
2019-02-25T16:14:47.036Z,42.20
2019-02-25T16:17:17.628Z,39.67
2019-02-25T16:19:48.054Z,39.83
2019-02-25T16:22:19.845Z,41.37
2019-02-25T16:24:51.088Z,38.88
2019-02-25T16:27:23.133Z,42.38
2019-02-25T16:29:53.722Z,40.43
2019-02-25T16:32:26.238Z,42.20
2019-02-25T16:34:58.567Z,42.67
2019-02-25T16:37:29.094Z,43.23
2019-02-25T16:40:01.274Z,45.90
2019-02-25T16:42:34.762Z,46.40
2019-02-25T16:45:09.582Z,42.80
2019-02-25T16:47:39.639Z,41.77
2019-02-25T16:50:11.836Z,41.70
2019-02-25T16:52:45.001Z,43.10
2019-02-25T16:55:15.598Z,44.42
2019-02-25T16:57:48.997Z,45.87
2019-02-25T17:00:19.358Z,45.60
2019-02-25T17:02:49.810Z,44.63
2019-02-25T17:05:20.165Z,42.10
2019-02-25T17:07:50.590Z,44.10
2019-02-25T17:10:24.092Z,41.43
2019-02-25T17:12:54.322Z,44.43
2019-02-25T17:15:26.984Z,40.38
2019-02-25T17:17:59.700Z,39.67
2019-02-25T17:20:28.797Z,41.00
2019-02-25T17:23:00.914Z,35.47
2019-02-25T17:25:32.156Z,32.95
2019-02-25T17:28:03.605Z,35.27
2019-02-25T17:30:35.091Z,36.23
2019-02-25T17:33:09.765Z,35.38
2019-02-25T17:35:39.933Z,32.78
2019-02-25T17:38:10.198Z,31.67
2019-02-25T17:40:40.964Z,35.10
2019-02-25T17:43:13.344Z,33.03
2019-02-25T17:45:43.594Z,32.80
2019-02-25T17:48:16.214Z,32.70
2019-02-25T17:50:47.765Z,34.53
2019-02-25T17:53:17.876Z,34.60
2019-02-25T17:55:49.016Z,35.03
2019-02-25T17:58:22.001Z,37.33
2019-02-25T18:00:54.199Z,35.70
2019-02-25T18:03:26.516Z,36.53
2019-02-25T18:05:58.581Z,33.73
2019-02-25T18:08:30.228Z,35.53
2019-02-25T18:11:00.826Z,38.85
2019-02-25T18:13:33.484Z,37.33
2019-02-25T18:16:04.569Z,38.53
2019-02-25T18:18:36.663Z,40.00
2019-02-25T18:21:08.414Z,40.00
2019-02-25T18:23:39.448Z,39.13
2019-02-25T18:26:09.798Z,41.40
2019-02-25T18:28:41.661Z,39.40
2019-02-25T18:31:14.820Z,41.77
2019-02-25T18:33:46.798Z,42.63
2019-02-25T18:36:17.383Z,43.23
2019-02-25T18:38:48.580Z,42.70
2019-02-25T18:41:25.434Z,43.78
2019-02-25T18:43:55.576Z,43.28
2019-02-25T18:46:27.268Z,42.20
2019-02-25T18:48:58.065Z,40.28
2019-02-25T18:51:30.143Z,41.02
2019-02-25T18:54:02.058Z,41.65
2019-02-25T18:56:33.667Z,40.05
2019-02-25T18:59:09.622Z,39.90
2019-02-25T19:01:36.668Z,40.23
2019-02-25T19:04:06.928Z,40.65
2019-02-25T19:06:39.132Z,41.40
2019-02-25T19:09:18.227Z,43.42
2019-02-25T19:11:51.224Z,42.53
2019-02-25T19:14:24.182Z,38.95
2019-02-25T19:16:55.357Z,41.88
2019-02-25T19:19:26.582Z,42.37
2019-02-25T19:21:56.919Z,44.27
2019-02-25T19:24:27.203Z,42.13
2019-02-25T19:26:57.521Z,44.10
2019-02-25T19:29:29.782Z,41.20
2019-02-25T19:32:01.159Z,40.50
2019-02-25T19:34:31.760Z,41.37
2019-02-25T19:37:05.174Z,43.87
2019-02-25T19:39:48.440Z,44.03
2019-02-25T19:42:20.811Z,42.10
2019-02-25T19:44:50.835Z,41.33
2019-02-25T19:47:22.470Z,41.30
2019-02-25T19:49:52.715Z,40.27
2019-02-25T19:52:23.145Z,41.45
2019-02-25T19:54:53.415Z,41.33
2019-02-25T19:57:26.069Z,44.03
2019-02-25T19:59:57.827Z,43.87
2019-02-25T20:02:29.745Z,42.37
2019-02-25T20:04:59.970Z,44.25
2019-02-25T20:07:31.450Z,44.75
2019-02-25T20:10:02.459Z,46.92
2019-02-25T20:12:35.137Z,44.20
2019-02-25T20:15:09.002Z,45.65
2019-02-25T20:17:38.618Z,43.73
2019-02-25T20:20:10.930Z,43.90
2019-02-25T20:22:41.394Z,45.27
2019-02-25T20:25:16.238Z,46.13
2019-02-25T20:27:44.951Z,47.45
2019-02-25T20:30:16.197Z,47.45
2019-02-25T20:32:46.544Z,47.03
2019-02-25T20:35:17.785Z,45.08
2019-02-25T20:37:52.949Z,47.27
2019-02-25T20:40:21.891Z,47.73
2019-02-25T20:42:54.132Z,46.08
2019-02-25T20:45:25.547Z,46.02
2019-02-25T20:47:59.493Z,44.70
2019-02-25T20:50:29.294Z,46.85
2019-02-25T20:53:05.052Z,46.68
2019-02-25T20:55:34.085Z,45.60
2019-02-25T20:58:04.096Z,48.33
2019-02-25T21:00:36.901Z,47.35
2019-02-25T21:03:06.656Z,46.53
2019-02-25T21:05:37.054Z,47.60
2019-02-25T21:08:07.341Z,47.20
2019-02-25T21:10:37.643Z,48.10
2019-02-25T21:13:08.082Z,46.50
2019-02-25T21:15:40.546Z,47.17
2019-02-25T21:18:10.269Z,48.70
2019-02-25T21:20:40.517Z,48.92
2019-02-25T21:23:12.567Z,47.55
2019-02-25T21:25:44.283Z,46.35
2019-02-25T21:28:14.652Z,47.95
2019-02-25T21:30:46.147Z,45.20
2019-02-25T21:33:18.007Z,45.73
2019-02-25T21:35:48.811Z,45.27
2019-02-25T21:38:19.609Z,45.63
2019-02-25T21:40:52.608Z,45.73
2019-02-25T21:43:24.131Z,47.53
2019-02-25T21:45:56.638Z,46.60
2019-02-25T21:48:27.939Z,47.60
2019-02-25T21:51:02.214Z,45.53
2019-02-25T21:53:31.174Z,46.83
2019-02-25T21:56:04.676Z,45.88
2019-02-25T21:58:33.295Z,42.48
2019-02-25T22:01:03.345Z,43.50
2019-02-25T22:03:37.061Z,44.40
2019-02-25T22:06:05.570Z,45.67
2019-02-25T22:08:36.254Z,44.95
2019-02-25T22:11:12.505Z,44.45
2019-02-25T22:13:38.537Z,41.77
2019-02-25T22:16:08.668Z,43.07
2019-02-25T22:18:38.966Z,45.40
2019-02-25T22:21:09.956Z,44.77
2019-02-25T22:23:44.175Z,46.58
2019-02-25T22:26:14.347Z,46.63
2019-02-25T22:28:44.614Z,46.07
2019-02-25T22:31:16.181Z,44.53
2019-02-25T22:33:46.756Z,44.33
2019-02-25T22:36:16.870Z,43.07
2019-02-25T22:38:47.114Z,45.80
2019-02-25T22:41:18.874Z,46.57
2019-02-25T22:43:49.089Z,45.53
2019-02-25T22:46:19.349Z,44.23
2019-02-25T22:48:49.518Z,45.65
2019-02-25T22:51:22.140Z,47.50
2019-02-25T22:53:51.458Z,47.30
2019-02-25T22:56:23.713Z,45.50
2019-02-25T22:58:53.977Z,44.30
2019-02-25T23:01:24.697Z,44.57
2019-02-25T23:03:55.522Z,47.57
2019-02-25T23:06:27.940Z,46.37
2019-02-25T23:08:58.207Z,45.57
2019-02-25T23:11:28.361Z,49.00
2019-02-25T23:13:58.685Z,46.48
2019-02-25T23:16:28.927Z,46.30
2019-02-25T23:18:59.199Z,46.37
2019-02-25T23:21:31.456Z,46.73
2019-02-25T23:24:02.960Z,48.23
2019-02-25T23:26:33.593Z,45.60
2019-02-25T23:29:03.988Z,46.80
2019-02-25T23:31:34.266Z,53.27
2019-02-25T23:34:05.730Z,47.57
2019-02-25T23:36:40.596Z,46.60
2019-02-25T23:39:08.560Z,47.53
2019-02-25T23:41:41.477Z,48.23
2019-02-25T23:44:13.288Z,49.07
2019-02-25T23:46:43.835Z,49.53
2019-02-25T23:49:13.918Z,46.73
2019-02-25T23:51:45.785Z,46.07
2019-02-25T23:54:16.237Z,46.20
2019-02-25T23:56:49.748Z,46.40
2019-02-25T23:59:22.032Z,47.40
